createdAt,value
2019-02-17T01:31:59.439Z,28.03
2019-02-17T01:34:34.753Z,30.53
2019-02-17T01:37:06.328Z,31.10
2019-02-17T01:39:35.192Z,28.77
2019-02-17T01:42:05.181Z,29.37
2019-02-17T01:44:36.230Z,26.60
2019-02-17T01:47:08.802Z,27.90
2019-02-17T01:49:39.464Z,29.03
2019-02-17T01:52:09.555Z,26.67
2019-02-17T01:54:38.388Z,27.50
2019-02-17T01:57:07.258Z,29.03
2019-02-17T01:59:36.075Z,29.57
2019-02-17T02:02:06.281Z,31.17
2019-02-17T02:04:35.199Z,28.23
2019-02-17T02:07:06.545Z,27.63
2019-02-17T02:09:35.337Z,25.60
2019-02-17T02:12:04.156Z,27.50
2019-02-17T02:14:33.925Z,27.23
2019-02-17T02:17:02.788Z,26.33
2019-02-17T02:19:31.628Z,27.47
2019-02-17T02:22:00.586Z,26.70
2019-02-17T02:24:29.456Z,24.97
2019-02-17T02:26:58.168Z,25.00
2019-02-17T02:29:27.082Z,26.70
2019-02-17T02:31:56.255Z,24.27
2019-02-17T02:34:25.234Z,25.53
2019-02-17T02:36:54.219Z,25.53
2019-02-17T02:39:23.944Z,24.27
2019-02-17T02:41:52.739Z,24.73
2019-02-17T02:44:21.566Z,25.50
2019-02-17T02:46:50.402Z,23.93
2019-02-17T02:49:21.753Z,24.33
2019-02-17T02:51:50.765Z,24.57
2019-02-17T02:54:25.183Z,24.20
2019-02-17T02:56:53.960Z,26.27
2019-02-17T02:59:22.796Z,25.17
2019-02-17T03:01:51.752Z,23.80
2019-02-17T03:04:20.738Z,24.10
2019-02-17T03:06:52.532Z,24.07
2019-02-17T03:09:21.397Z,24.90
2019-02-17T03:11:50.155Z,24.57
2019-02-17T03:14:18.864Z,24.80
2019-02-17T03:16:47.684Z,25.03
2019-02-17T05:39:43.695Z,23.90
2019-02-17T05:42:08.275Z,21.77
2019-02-17T05:47:30.267Z,23.07
2019-02-17T05:49:59.811Z,22.63
2019-02-17T05:52:28.627Z,21.37
2019-02-17T05:54:57.225Z,21.70
2019-02-17T05:57:25.997Z,21.23
2019-02-17T05:59:54.709Z,21.27
2019-02-17T06:09:33.996Z,20.57
2019-02-17T06:12:08.188Z,20.67
2019-02-17T06:23:40.720Z,20.00
2019-02-17T06:26:09.515Z,20.87
2019-02-17T06:28:58.113Z,20.00
2019-02-17T06:31:26.739Z,21.20
2019-02-17T06:33:55.352Z,21.17
2019-02-17T06:36:50.603Z,21.63
2019-02-17T06:39:24.083Z,21.07
2019-02-17T06:51:32.047Z,21.23
2019-02-17T06:54:00.698Z,22.27
2019-02-17T06:55:01.518Z,21.80
2019-02-17T06:56:31.285Z,22.60
2019-02-17T06:59:00.139Z,20.97
2019-02-17T07:01:29.159Z,22.20
2019-02-17T07:03:57.873Z,21.03
2019-02-17T07:06:40.365Z,21.20
2019-02-17T07:09:09.037Z,20.03
2019-02-17T07:11:37.731Z,21.77
2019-02-17T07:14:07.019Z,23.67
2019-02-17T07:16:35.897Z,22.57
2019-02-17T07:19:04.645Z,23.07
2019-02-17T07:21:33.325Z,21.50
2019-02-17T07:24:02.030Z,22.10
2019-02-17T07:26:30.861Z,21.60
2019-02-17T07:28:59.632Z,22.40
2019-02-17T07:31:34.828Z,21.50
2019-02-17T07:33:58.735Z,21.33
2019-02-17T07:39:48.507Z,20.77
2019-02-17T07:42:16.996Z,20.40
2019-02-17T07:44:56.577Z,20.53
2019-02-17T07:47:35.297Z,21.93
2019-02-17T07:49:59.631Z,21.97
2019-02-17T07:52:28.351Z,20.90
2019-02-17T07:54:57.107Z,26.73
2019-02-17T07:57:52.990Z,24.97
2019-02-17T08:00:21.740Z,24.17
2019-02-17T08:02:50.692Z,24.00
2019-02-17T08:05:19.515Z,25.37
2019-02-17T08:08:05.627Z,24.00
2019-02-17T08:10:38.507Z,23.30
2019-02-17T08:13:11.948Z,24.50
2019-02-17T08:15:40.594Z,22.80
2019-02-17T08:18:09.223Z,23.17
2019-02-17T08:20:37.964Z,24.13
2019-02-17T08:23:07.878Z,23.03
2019-02-17T08:25:36.662Z,24.33
2019-02-17T08:28:08.006Z,24.40
2019-02-17T08:30:36.920Z,23.30
2019-02-17T08:33:05.634Z,22.60
2019-02-17T08:35:34.387Z,22.67
2019-02-17T08:38:05.180Z,22.00
2019-02-17T08:40:33.812Z,22.50
2019-02-17T08:43:05.189Z,23.00
2019-02-17T08:45:33.939Z,23.53
2019-02-17T08:48:02.629Z,22.17
2019-02-17T08:50:31.413Z,24.37
2019-02-17T08:53:00.037Z,24.57
2019-02-17T08:55:29.393Z,22.73
2019-02-17T09:01:26.214Z,23.37
2019-02-17T09:03:55.409Z,25.50
2019-02-17T09:06:24.046Z,24.73
2019-02-17T09:08:52.885Z,24.27
2019-02-17T09:11:21.703Z,23.03
2019-02-17T09:13:50.430Z,25.03
2019-02-17T09:16:19.141Z,25.47
2019-02-17T09:18:48.006Z,23.70
2019-02-17T09:21:19.509Z,25.60
2019-02-17T09:23:50.624Z,23.03
2019-02-17T09:26:19.336Z,24.83
2019-02-17T09:28:48.110Z,24.87
2019-02-17T09:31:16.897Z,24.63
2019-02-17T09:33:45.500Z,24.37
2019-02-17T09:36:14.275Z,22.70
2019-02-17T09:38:42.855Z,22.10
2019-02-17T09:41:11.671Z,22.93
2019-02-17T09:43:40.346Z,22.60
2019-02-17T09:46:09.066Z,23.50
2019-02-17T09:48:37.788Z,23.30
2019-02-17T09:51:06.505Z,21.97
2019-02-17T09:53:38.890Z,22.07
2019-02-17T09:56:13.321Z,20.93
2019-02-17T09:58:45.074Z,20.93
2019-02-17T10:01:13.674Z,21.43
2019-02-17T10:03:42.303Z,19.50
2019-02-17T10:06:11.059Z,21.23
2019-02-17T10:08:39.649Z,20.70
2019-02-17T10:11:08.240Z,20.70
2019-02-17T10:13:38.032Z,20.80
2019-02-17T10:16:09.682Z,19.73
2019-02-17T10:18:41.439Z,19.80
2019-02-17T10:21:10.463Z,20.43
2019-02-17T10:26:59.105Z,19.70
2019-02-17T10:29:27.801Z,19.57
2019-02-17T10:34:57.915Z,18.30
2019-02-17T10:40:59.842Z,19.70
2019-02-17T10:41:15.901Z,20.00
2019-02-17T10:43:47.032Z,20.40
2019-02-17T10:49:19.382Z,17.90
2019-02-17T10:52:04.951Z,17.37
2019-02-17T10:57:58.189Z,17.50
2019-02-17T11:00:28.112Z,18.07
2019-02-17T11:03:00.051Z,17.03
2019-02-17T11:05:28.591Z,17.83
2019-02-17T11:08:05.662Z,18.40
2019-02-17T11:10:31.982Z,17.47
2019-02-17T11:13:11.508Z,17.57
2019-02-17T11:15:44.412Z,17.60
2019-02-17T11:18:13.256Z,17.87
2019-02-17T11:20:42.059Z,16.53
2019-02-17T11:23:13.864Z,16.83
2019-02-17T11:25:42.633Z,16.23
2019-02-17T11:28:12.968Z,15.07
2019-02-17T11:30:41.947Z,16.70
2019-02-17T11:33:10.966Z,16.10
2019-02-17T11:35:39.773Z,17.27
2019-02-17T11:38:13.191Z,14.00
2019-02-17T11:40:43.697Z,15.90
2019-02-17T11:43:12.604Z,16.03
2019-02-17T11:45:41.553Z,16.17
2019-02-17T11:48:12.849Z,15.97
2019-02-17T11:50:41.589Z,16.93
2019-02-17T11:53:10.335Z,17.27
2019-02-17T11:55:38.985Z,16.90
2019-02-17T11:58:10.701Z,14.17
2019-02-17T12:00:39.537Z,15.87
2019-02-17T12:03:08.550Z,15.40
2019-02-17T12:05:39.894Z,15.93
2019-02-17T12:08:19.674Z,15.67
2019-02-17T12:10:48.405Z,14.43
2019-02-17T12:13:17.070Z,14.90
2019-02-17T12:15:45.915Z,15.27
2019-02-17T12:18:14.873Z,15.13
2019-02-17T12:20:54.339Z,13.57
2019-02-17T12:23:36.666Z,15.23
2019-02-17T12:26:09.590Z,15.77
2019-02-17T12:28:55.268Z,14.80
2019-02-17T12:31:25.596Z,14.90
2019-02-17T12:34:02.062Z,14.70
2019-02-17T12:36:31.028Z,12.27
2019-02-17T12:38:59.811Z,13.60
2019-02-17T12:41:28.450Z,13.53
2019-02-17T12:43:57.077Z,14.27
2019-02-17T12:46:25.646Z,14.20
2019-02-17T12:48:54.260Z,13.40
2019-02-17T12:51:23.515Z,13.53
2019-02-17T12:53:52.062Z,13.40
2019-02-17T12:56:20.722Z,13.17
2019-02-17T12:58:49.332Z,12.70
2019-02-17T13:01:17.966Z,13.87
2019-02-17T13:03:46.626Z,13.17
2019-02-17T13:06:15.387Z,12.53
2019-02-17T13:08:44.126Z,13.80
2019-02-17T13:11:12.789Z,13.00
2019-02-17T13:13:41.477Z,13.40
2019-02-17T13:16:10.260Z,13.37
2019-02-17T13:18:39.079Z,10.47
2019-02-17T13:21:07.781Z,11.80
2019-02-17T13:23:36.444Z,12.30
2019-02-17T13:26:05.405Z,12.40
2019-02-17T13:28:33.967Z,12.43
2019-02-17T13:31:04.126Z,11.67
2019-02-17T13:33:39.100Z,12.00
2019-02-17T13:36:03.161Z,11.23
2019-02-17T13:38:31.832Z,11.60
2019-02-17T13:41:00.470Z,11.70
2019-02-17T13:43:29.158Z,11.37
2019-02-17T13:45:57.807Z,11.60
2019-02-17T13:48:26.512Z,11.33
2019-02-17T13:50:55.271Z,11.50
2019-02-17T13:53:23.988Z,10.67
2019-02-17T13:55:52.760Z,11.30
2019-02-17T13:58:21.384Z,10.93
2019-02-17T14:00:49.970Z,10.90
2019-02-17T14:03:20.765Z,10.93
2019-02-17T14:05:54.825Z,10.83
2019-02-17T14:08:23.524Z,9.60
2019-02-17T14:10:58.537Z,11.17
2019-02-17T14:13:36.322Z,10.57
2019-02-17T14:16:08.392Z,9.77
2019-02-17T14:18:37.268Z,10.50
2019-02-17T14:21:05.927Z,11.00
2019-02-17T14:23:34.663Z,10.40
2019-02-17T14:26:03.377Z,11.00
2019-02-17T14:28:31.946Z,9.60
2019-02-17T14:31:00.714Z,10.20
2019-02-17T14:33:29.556Z,10.07
2019-02-17T14:35:58.348Z,9.87
2019-02-17T14:38:31.535Z,10.73
2019-02-17T14:41:00.371Z,9.93
2019-02-17T14:43:31.049Z,10.70
2019-02-17T14:45:59.704Z,10.90
2019-02-17T14:48:28.273Z,11.07
2019-02-17T14:50:56.842Z,10.53
2019-02-17T14:53:25.525Z,10.78
2019-02-17T14:55:54.089Z,10.57
2019-02-17T14:58:22.644Z,10.13
2019-02-17T15:00:51.225Z,9.30
2019-02-17T15:03:19.960Z,10.40
2019-02-17T15:05:48.516Z,9.67
2019-02-17T15:08:17.252Z,10.23
2019-02-17T15:10:45.873Z,10.77
2019-02-17T15:13:14.492Z,10.33
2019-02-17T15:15:43.089Z,10.40
2019-02-17T15:18:11.696Z,9.93
2019-02-17T15:20:40.298Z,9.40
2019-02-17T15:23:08.878Z,9.40
2019-02-17T15:25:37.479Z,9.10
2019-02-17T15:28:06.015Z,9.83
2019-02-17T15:30:34.621Z,9.33
2019-02-17T15:33:04.257Z,9.60
2019-02-17T15:35:33.030Z,9.33
2019-02-17T15:38:01.602Z,8.27
2019-02-17T15:40:30.173Z,9.10
2019-02-17T15:42:58.795Z,8.60
2019-02-17T15:45:28.610Z,9.03
2019-02-17T15:47:57.242Z,8.70
2019-02-17T15:50:27.442Z,9.30
2019-02-17T15:53:02.463Z,9.03
2019-02-17T15:55:30.054Z,8.37
2019-02-17T15:57:58.620Z,8.33
2019-02-17T16:00:27.202Z,8.90
2019-02-17T16:02:55.838Z,9.13
2019-02-17T16:05:24.470Z,9.67
2019-02-17T16:07:53.177Z,9.03
2019-02-17T16:10:21.730Z,8.57
2019-02-17T16:12:50.305Z,8.87
2019-02-17T16:15:24.253Z,8.13
2019-02-17T16:17:52.887Z,57.23
2019-02-17T16:20:21.512Z,39.40
2019-02-17T16:22:50.174Z,45.50
2019-02-17T16:25:18.800Z,24.77
2019-02-17T16:27:47.476Z,10.37
2019-02-17T16:30:18.383Z,8.53
2019-02-17T16:32:46.942Z,9.27
2019-02-17T16:35:15.640Z,9.57
2019-02-17T16:37:44.258Z,10.57
2019-02-17T16:40:19.302Z,10.43
2019-02-17T16:42:48.049Z,22.63
2019-02-17T16:45:16.710Z,21.57
2019-02-17T16:47:45.521Z,22.67
2019-02-17T16:50:17.330Z,21.73
2019-02-17T16:52:45.972Z,64.57
2019-02-17T16:55:14.687Z,83.37
2019-02-17T16:57:43.393Z,76.07
2019-02-17T17:00:16.570Z,84.53
2019-02-17T17:02:45.268Z,89.57
2019-02-17T17:05:14.100Z,76.60
2019-02-17T17:07:42.766Z,29.37
2019-02-17T17:10:11.488Z,24.40
2019-02-17T17:12:40.171Z,36.63
2019-02-17T17:15:09.918Z,35.40
2019-02-17T17:17:38.682Z,39.37
2019-02-17T17:20:12.308Z,19.57
2019-02-17T17:22:40.942Z,14.27
2019-02-17T17:25:11.546Z,12.93
2019-02-17T17:27:41.426Z,13.93
2019-02-17T17:30:13.274Z,15.07
2019-02-17T17:32:41.856Z,14.70
2019-02-17T17:35:11.402Z,12.80
2019-02-17T17:37:40.266Z,11.03
2019-02-17T17:40:14.576Z,11.60
2019-02-17T17:42:43.530Z,11.13
2019-02-17T17:45:17.091Z,11.87
2019-02-17T17:47:45.663Z,12.30
2019-02-17T17:50:15.822Z,12.30
2019-02-17T17:52:44.567Z,12.80
2019-02-17T17:55:13.899Z,10.90
2019-02-17T17:57:42.622Z,10.83
2019-02-17T18:00:17.510Z,10.90
2019-02-17T18:02:46.299Z,11.40
2019-02-17T18:05:14.992Z,12.00
2019-02-17T18:07:43.698Z,11.90
2019-02-17T18:10:16.526Z,12.00
2019-02-17T18:12:45.370Z,12.97
2019-02-17T18:15:16.476Z,14.47
2019-02-17T18:17:53.796Z,14.13
2019-02-17T18:20:15.577Z,16.30
2019-02-17T18:22:44.164Z,19.43
2019-02-17T18:25:14.593Z,20.30
2019-02-17T18:27:43.432Z,19.27
2019-02-17T18:30:17.219Z,24.33
2019-02-17T18:32:45.894Z,33.67
2019-02-17T18:35:20.259Z,27.40
2019-02-17T18:37:47.478Z,19.20
2019-02-17T18:40:17.847Z,18.40
2019-02-17T18:42:46.419Z,19.17
2019-02-17T18:45:16.238Z,16.47
2019-02-17T18:47:44.957Z,13.80
2019-02-17T18:50:17.892Z,15.40
2019-02-17T18:52:46.453Z,15.03
2019-02-17T18:55:15.347Z,18.20
2019-02-17T18:57:50.077Z,19.93
2019-02-17T19:00:26.702Z,16.57
2019-02-17T19:02:55.332Z,15.03
2019-02-17T19:05:31.567Z,16.00
2019-02-17T19:07:54.534Z,15.23
2019-02-17T19:10:23.278Z,15.00
2019-02-17T19:12:51.828Z,14.33
2019-02-17T19:15:21.664Z,14.50
2019-02-17T19:17:50.310Z,14.70
2019-02-17T19:20:27.434Z,14.60
2019-02-17T19:22:56.505Z,13.20
2019-02-17T19:25:25.284Z,14.33
2019-02-17T19:27:53.946Z,13.30
2019-02-17T19:30:22.587Z,13.33
2019-02-17T19:33:31.758Z,13.60
2019-02-17T19:36:00.454Z,14.53
2019-02-17T19:38:30.792Z,14.27
2019-02-17T19:41:06.518Z,14.27
2019-02-17T19:43:46.576Z,13.70
2019-02-17T19:46:15.452Z,14.10
2019-02-17T19:48:44.958Z,13.80
2019-02-17T19:51:13.774Z,14.07
2019-02-17T19:53:46.734Z,15.20
2019-02-17T19:56:15.340Z,13.63
2019-02-17T19:58:44.411Z,13.07
2019-02-17T20:01:16.376Z,13.33
2019-02-17T20:03:47.120Z,16.17
2019-02-17T20:06:17.735Z,16.00
2019-02-17T20:08:49.431Z,16.27
2019-02-17T20:11:20.294Z,17.23
2019-02-17T20:13:51.626Z,15.87
2019-02-17T20:16:22.494Z,16.20
2019-02-17T20:19:03.222Z,15.60
2019-02-17T20:21:33.654Z,15.10
2019-02-17T20:24:15.524Z,16.10
2019-02-17T20:26:39.929Z,14.80
2019-02-17T20:29:17.526Z,14.97
2019-02-17T20:31:49.486Z,15.53
2019-02-17T20:34:18.348Z,14.10
2019-02-17T20:36:47.030Z,15.03
2019-02-17T20:39:17.354Z,15.27
2019-02-17T20:41:52.488Z,15.03
2019-02-17T20:44:21.389Z,15.47
2019-02-17T20:47:02.442Z,16.30
2019-02-17T20:49:41.570Z,15.73
2019-02-17T20:52:16.968Z,16.17
2019-02-17T20:54:49.553Z,16.23
2019-02-17T20:57:23.728Z,15.17
2019-02-17T20:59:57.026Z,15.57
2019-02-17T21:02:43.910Z,16.03
2019-02-17T21:05:21.507Z,15.40
2019-02-17T21:08:06.472Z,15.93
2019-02-17T21:10:35.348Z,15.13
2019-02-17T21:13:04.142Z,15.27
2019-02-17T21:15:32.814Z,15.90
2019-02-17T21:18:01.814Z,14.97
2019-02-17T21:20:34.185Z,15.87
2019-02-17T21:26:05.252Z,16.10
2019-02-17T21:28:35.512Z,16.13
2019-02-17T21:31:15.558Z,18.47
2019-02-17T21:33:45.360Z,18.37
2019-02-17T21:36:22.951Z,16.87
2019-02-17T21:38:44.756Z,17.40
2019-02-17T21:41:21.729Z,16.90
2019-02-17T21:43:50.573Z,16.90
2019-02-17T21:46:30.274Z,16.30
2019-02-17T21:48:53.423Z,16.40
2019-02-17T21:51:22.230Z,16.00
2019-02-17T21:53:50.803Z,16.43
2019-02-17T21:56:19.460Z,15.70
2019-02-17T21:58:49.546Z,16.10
2019-02-17T22:01:18.143Z,15.60
2019-02-17T22:03:46.802Z,14.87
2019-02-17T22:06:15.466Z,13.87
2019-02-17T22:08:44.109Z,13.53
2019-02-17T22:11:12.742Z,13.47
2019-02-17T22:13:41.323Z,13.87
2019-02-17T22:16:10.054Z,13.77
2019-02-17T22:18:38.644Z,14.57
2019-02-17T22:21:07.412Z,13.17
2019-02-17T22:23:40.014Z,13.63
2019-02-17T22:26:09.071Z,12.73
2019-02-17T22:31:30.173Z,13.87
2019-02-17T22:34:06.515Z,13.13
2019-02-17T22:36:43.549Z,13.40
2019-02-17T22:39:13.329Z,12.80
2019-02-17T22:41:42.150Z,13.20
2019-02-17T22:44:10.985Z,13.53
2019-02-17T22:46:46.054Z,13.23
2019-02-17T22:49:19.202Z,12.70
2019-02-17T22:51:54.192Z,12.70
2019-02-17T22:57:49.375Z,13.73
2019-02-17T23:00:25.149Z,12.50
2019-02-17T23:03:20.293Z,13.00
2019-02-17T23:05:44.979Z,12.93
2019-02-17T23:08:13.729Z,11.83
2019-02-17T23:10:42.521Z,13.00
2019-02-17T23:13:11.222Z,12.10
2019-02-17T23:15:39.951Z,13.13
2019-02-17T23:18:08.691Z,13.03
2019-02-17T23:20:37.341Z,12.43
2019-02-17T23:23:06.064Z,12.03
2019-02-17T23:25:34.719Z,12.47
2019-02-17T23:28:04.399Z,13.40
2019-02-17T23:30:33.098Z,12.00
2019-02-17T23:33:01.682Z,12.37
2019-02-17T23:35:30.311Z,12.97
2019-02-17T23:37:59.045Z,13.27
2019-02-17T23:40:27.697Z,13.07
2019-02-17T23:42:56.285Z,13.33
2019-02-17T23:45:24.968Z,12.60
2019-02-17T23:47:53.561Z,13.50
2019-02-17T23:50:22.231Z,13.87
2019-02-17T23:52:50.843Z,13.03
2019-02-17T23:55:19.595Z,13.80
2019-02-17T23:57:48.335Z,15.30
